createdAt,value
2022-12-08T00:02:23.284Z,11.40
2022-12-08T00:05:09.327Z,14.65
2022-12-08T00:07:57.202Z,6.18
2022-12-08T00:10:48.411Z,10.90
2022-12-08T00:13:14.347Z,13.48
2022-12-08T00:15:46.934Z,12.13
2022-12-08T00:18:15.378Z,11.75
2022-12-08T00:20:43.701Z,8.40
2022-12-08T00:23:12.187Z,8.43
2022-12-08T00:25:40.514Z,13.55
2022-12-08T00:28:08.830Z,10.07
2022-12-08T00:30:37.105Z,9.13
2022-12-08T00:33:06.887Z,10.18
2022-12-08T00:35:40.086Z,9.23
2022-12-08T00:38:11.202Z,10.25
2022-12-08T00:40:39.555Z,9.18
2022-12-08T00:43:07.976Z,8.00
2022-12-08T00:45:39.847Z,11.15
2022-12-08T00:48:09.563Z,7.68
2022-12-08T00:50:37.826Z,12.15
2022-12-08T00:53:06.621Z,8.60
2022-12-08T00:55:35.391Z,12.90
2022-12-08T00:58:03.675Z,11.75
2022-12-08T01:00:32.132Z,10.07
2022-12-08T01:03:00.464Z,8.43
2022-12-08T01:05:30.220Z,9.93
2022-12-08T01:07:58.535Z,8.50
2022-12-08T01:10:26.872Z,7.32
2022-12-08T01:12:55.139Z,10.25
2022-12-08T01:15:23.445Z,13.70
2022-12-08T01:17:51.745Z,7.28
2022-12-08T01:20:20.245Z,10.60
2022-12-08T01:22:49.942Z,9.85
2022-12-08T01:25:18.667Z,11.57
2022-12-08T01:27:46.928Z,10.52
2022-12-08T01:30:15.891Z,9.65
2022-12-08T01:32:44.188Z,8.38
2022-12-08T01:35:12.433Z,9.20
2022-12-08T01:37:40.772Z,6.38
2022-12-08T01:40:11.518Z,7.88
2022-12-08T01:42:41.331Z,4.97
2022-12-08T01:45:16.453Z,6.97
2022-12-08T01:47:47.514Z,9.88
2022-12-08T01:50:17.473Z,6.72
2022-12-08T01:52:49.325Z,7.60
2022-12-08T01:55:22.400Z,11.65
2022-12-08T01:57:52.689Z,9.15
2022-12-08T02:00:22.384Z,9.63
2022-12-08T02:02:57.601Z,10.68
2022-12-08T02:05:28.791Z,9.73
2022-12-08T02:07:58.891Z,9.75
2022-12-08T02:10:31.448Z,10.20
2022-12-08T02:13:00.397Z,12.95
2022-12-08T02:15:35.347Z,13.35
2022-12-08T02:18:15.936Z,10.57
2022-12-08T02:20:50.585Z,8.27
2022-12-08T02:23:28.805Z,10.50
2022-12-08T02:26:26.110Z,7.57
2022-12-08T02:29:09.300Z,10.93
2022-12-08T02:31:45.562Z,9.80
2022-12-08T02:34:22.125Z,9.48
2022-12-08T02:36:55.520Z,10.07
2022-12-08T02:39:30.290Z,10.63
2022-12-08T02:42:06.203Z,10.05
2022-12-08T02:44:38.673Z,11.73
2022-12-08T02:47:10.012Z,11.68
2022-12-08T02:49:39.848Z,9.15
2022-12-08T02:52:30.401Z,7.30
2022-12-08T02:55:01.126Z,7.90
2022-12-08T02:57:33.718Z,8.40
2022-12-08T03:00:10.215Z,9.23
2022-12-08T03:02:49.810Z,9.75
2022-12-08T03:05:36.416Z,15.27
2022-12-08T03:08:09.522Z,9.25
2022-12-08T03:10:42.666Z,10.73
2022-12-08T03:13:14.215Z,8.82
2022-12-08T03:15:43.362Z,9.88
2022-12-08T03:18:12.821Z,9.98
2022-12-08T03:20:43.538Z,7.43
2022-12-08T03:23:16.219Z,10.55
2022-12-08T03:25:56.776Z,7.40
2022-12-08T03:28:25.352Z,6.50
2022-12-08T03:30:57.242Z,14.68
2022-12-08T03:33:27.969Z,8.90
2022-12-08T03:35:58.544Z,7.70
2022-12-08T03:38:26.947Z,8.02
2022-12-08T03:41:09.282Z,11.90
2022-12-08T03:43:37.687Z,6.75
2022-12-08T03:46:06.354Z,11.68
2022-12-08T03:48:34.721Z,14.20
2022-12-08T03:51:04.520Z,13.02
2022-12-08T03:53:32.829Z,8.63
2022-12-08T03:56:01.293Z,14.10
2022-12-08T03:58:34.327Z,11.82
2022-12-08T04:01:05.463Z,12.82
2022-12-08T04:03:33.899Z,14.70
2022-12-08T04:06:02.214Z,11.55
2022-12-08T04:08:31.906Z,12.32
2022-12-08T04:11:00.300Z,10.07
2022-12-08T04:13:29.022Z,8.40
2022-12-08T04:15:57.339Z,10.88
2022-12-08T04:18:25.728Z,9.63
2022-12-08T04:20:54.374Z,12.15
2022-12-08T04:23:22.663Z,12.05
2022-12-08T04:25:52.533Z,8.93
2022-12-08T04:28:20.894Z,12.77
2022-12-08T04:30:50.630Z,8.98
2022-12-08T04:33:19.166Z,11.88
2022-12-08T04:35:47.537Z,6.88
2022-12-08T04:38:15.836Z,12.23
2022-12-08T04:40:45.736Z,8.13
2022-12-08T04:43:15.391Z,12.98
2022-12-08T04:45:44.483Z,13.45
2022-12-08T04:48:13.383Z,10.65
2022-12-08T04:50:42.847Z,13.88
2022-12-08T04:53:12.241Z,12.93
2022-12-08T04:55:41.386Z,7.93
2022-12-08T04:58:11.488Z,8.02
2022-12-08T05:00:41.229Z,10.43
2022-12-08T05:03:10.197Z,17.35
2022-12-08T05:05:38.716Z,13.52
2022-12-08T05:08:07.576Z,13.05
2022-12-08T05:10:36.044Z,11.52
2022-12-08T05:13:08.372Z,16.40
2022-12-08T05:15:36.686Z,11.43
2022-12-08T05:18:08.021Z,13.25
2022-12-08T05:20:39.455Z,14.18
2022-12-08T05:23:07.860Z,8.32
2022-12-08T05:25:36.126Z,9.02
2022-12-08T05:28:32.654Z,10.02
2022-12-08T05:30:52.914Z,11.48
2022-12-08T05:33:22.636Z,5.85
2022-12-08T05:35:50.990Z,11.90
2022-12-08T05:38:19.236Z,12.30
2022-12-08T05:40:47.570Z,10.73
2022-12-08T05:43:16.134Z,13.15
2022-12-08T05:45:45.048Z,10.60
2022-12-08T05:48:13.436Z,7.78
2022-12-08T05:50:47.318Z,11.90
2022-12-08T05:53:15.723Z,15.32
2022-12-08T05:55:44.178Z,6.65
2022-12-08T05:58:14.262Z,12.40
2022-12-08T06:00:42.671Z,9.05
2022-12-08T06:03:14.384Z,7.50
2022-12-08T06:05:45.858Z,7.55
2022-12-08T06:08:14.610Z,11.27
2022-12-08T06:10:44.127Z,11.55
2022-12-08T06:13:14.896Z,7.53
2022-12-08T06:15:43.570Z,8.15
2022-12-08T06:18:13.493Z,10.18
2022-12-08T06:20:43.467Z,8.40
2022-12-08T06:23:13.421Z,9.75
2022-12-08T06:25:41.826Z,8.73
2022-12-08T06:28:10.120Z,7.93
2022-12-08T06:30:39.070Z,7.07
2022-12-08T06:33:10.416Z,14.07
2022-12-08T06:35:39.857Z,10.43
2022-12-08T06:38:17.807Z,10.15
2022-12-08T06:40:46.180Z,6.63
2022-12-08T06:43:15.182Z,9.27
2022-12-08T06:45:43.527Z,13.57
2022-12-08T06:48:11.842Z,8.45
2022-12-08T06:50:40.123Z,5.18
2022-12-08T06:53:09.865Z,8.57
2022-12-08T06:55:58.927Z,7.03
2022-12-08T06:58:28.117Z,9.57
2022-12-08T07:00:56.519Z,5.55
2022-12-08T07:03:27.893Z,10.05
2022-12-08T07:06:03.330Z,9.77
2022-12-08T07:08:33.725Z,9.32
2022-12-08T07:11:08.100Z,11.13
2022-12-08T07:13:36.684Z,7.25
2022-12-08T07:16:07.761Z,8.73
2022-12-08T07:18:41.205Z,7.10
2022-12-08T07:21:11.068Z,7.60
2022-12-08T07:23:40.960Z,10.43
2022-12-08T07:26:11.508Z,8.60
2022-12-08T07:28:40.992Z,8.48
2022-12-08T07:31:17.513Z,9.18
2022-12-08T07:33:45.944Z,4.88
2022-12-08T07:36:14.549Z,6.65
2022-12-08T07:38:45.741Z,8.10
2022-12-08T07:41:14.890Z,5.18
2022-12-08T07:43:43.460Z,8.77
2022-12-08T07:46:13.629Z,9.02
2022-12-08T07:48:43.129Z,11.02
2022-12-08T07:51:12.940Z,9.68
2022-12-08T07:53:53.159Z,11.40
2022-12-08T07:56:26.258Z,10.85
2022-12-08T07:58:54.596Z,12.18
2022-12-08T08:01:26.114Z,9.27
2022-12-08T08:03:55.455Z,9.93
2022-12-08T08:06:23.859Z,7.25
2022-12-08T08:08:53.605Z,9.45
2022-12-08T08:11:22.533Z,7.00
2022-12-08T08:13:51.431Z,5.18
2022-12-08T08:16:20.918Z,11.02
2022-12-08T08:18:51.211Z,10.60
2022-12-08T08:24:10.725Z,6.57
2022-12-08T08:26:39.327Z,6.68
2022-12-08T08:29:07.773Z,6.47
2022-12-08T08:31:40.381Z,5.20
2022-12-08T08:34:10.569Z,11.48
2022-12-08T08:36:39.871Z,10.00
2022-12-08T08:39:08.233Z,8.93
2022-12-08T08:41:38.000Z,8.65
2022-12-08T08:44:06.754Z,6.20
2022-12-08T08:46:35.174Z,7.35
2022-12-08T08:49:03.571Z,3.92
2022-12-08T08:51:31.923Z,8.57
2022-12-08T08:54:00.475Z,11.88
2022-12-08T08:56:28.821Z,6.47
2022-12-08T08:58:58.869Z,7.53
2022-12-08T09:01:30.098Z,7.82
2022-12-08T09:03:59.119Z,10.65
2022-12-08T09:06:28.521Z,9.63
2022-12-08T09:08:58.175Z,10.55
2022-12-08T09:11:26.476Z,6.53
2022-12-08T09:13:55.529Z,9.95
2022-12-08T09:16:25.668Z,8.25
2022-12-08T09:18:54.158Z,11.48
2022-12-08T09:21:23.688Z,11.50
2022-12-08T09:23:55.480Z,8.52
2022-12-08T09:26:24.206Z,7.78
2022-12-08T09:28:53.485Z,12.13
2022-12-08T09:31:22.983Z,9.27
2022-12-08T09:33:52.852Z,8.65
2022-12-08T09:36:21.351Z,10.88
2022-12-08T09:38:51.186Z,9.48
2022-12-08T09:41:23.909Z,10.73
2022-12-08T09:44:04.265Z,11.32
2022-12-08T09:46:35.325Z,12.95
2022-12-08T09:49:05.927Z,12.40
2022-12-08T09:51:37.923Z,8.55
2022-12-08T09:54:09.672Z,6.43
2022-12-08T09:56:38.700Z,8.85
2022-12-08T09:59:13.448Z,13.15
2022-12-08T10:04:24.015Z,12.60
2022-12-08T10:07:04.794Z,8.25
2022-12-08T10:09:39.417Z,11.00
2022-12-08T10:12:14.938Z,9.52
2022-12-08T10:14:44.877Z,11.20
2022-12-08T10:17:19.338Z,11.48
2022-12-08T10:19:54.692Z,11.38
2022-12-08T10:22:25.970Z,10.88
2022-12-08T10:24:59.520Z,8.65
2022-12-08T10:27:28.174Z,9.50
2022-12-08T10:29:58.462Z,5.95
2022-12-08T10:32:34.806Z,10.23
2022-12-08T10:35:08.242Z,9.43
2022-12-08T10:37:36.899Z,10.23
2022-12-08T10:40:10.440Z,8.88
2022-12-08T10:42:42.938Z,10.70
2022-12-08T10:45:22.237Z,12.25
2022-12-08T10:47:58.130Z,11.32
2022-12-08T10:50:33.279Z,5.97
2022-12-08T10:53:03.255Z,7.20
2022-12-08T10:55:42.482Z,9.13
2022-12-08T10:58:26.437Z,11.40
2022-12-08T11:00:59.679Z,9.40
2022-12-08T11:03:33.576Z,9.57
2022-12-08T11:06:12.038Z,9.52
2022-12-08T11:08:48.153Z,12.75
2022-12-08T11:11:17.042Z,12.57
2022-12-08T11:13:45.474Z,9.50
2022-12-08T11:16:15.551Z,11.00
2022-12-08T11:18:47.079Z,10.63
2022-12-08T11:21:18.831Z,16.35
2022-12-08T11:23:51.295Z,16.48
2022-12-08T11:26:26.539Z,14.20
2022-12-08T11:29:00.029Z,15.20
2022-12-08T11:31:31.699Z,5.35
2022-12-08T11:34:00.055Z,12.40
2022-12-08T11:36:31.925Z,10.18
2022-12-08T11:39:02.327Z,14.75
2022-12-08T11:41:33.908Z,14.10
2022-12-08T11:44:06.594Z,10.38
2022-12-08T11:46:39.613Z,8.43
2022-12-08T11:49:11.181Z,11.02
2022-12-08T11:51:44.435Z,10.68
2022-12-08T11:54:20.210Z,13.02
2022-12-08T11:56:51.443Z,13.93
2022-12-08T11:59:28.110Z,9.75
2022-12-08T12:01:57.447Z,15.05
2022-12-08T12:04:29.283Z,10.27
2022-12-08T12:07:33.625Z,14.30
2022-12-08T12:10:21.497Z,12.48
2022-12-08T12:13:00.542Z,11.23
2022-12-08T12:15:56.438Z,13.63
2022-12-08T12:18:27.488Z,12.32
2022-12-08T12:21:00.880Z,11.27
2022-12-08T12:23:36.755Z,13.38
2022-12-08T12:26:11.403Z,10.43
2022-12-08T12:28:44.651Z,9.73
2022-12-08T12:31:16.812Z,10.52
2022-12-08T12:33:48.437Z,8.15
2022-12-08T12:36:17.444Z,15.25
2022-12-08T12:39:06.591Z,10.95
2022-12-08T12:41:44.300Z,7.03
2022-12-08T12:44:40.927Z,7.72
2022-12-08T12:47:16.018Z,21.20
2022-12-08T12:50:07.177Z,13.80
2022-12-08T12:52:43.616Z,11.38
2022-12-08T12:55:53.179Z,14.38
2022-12-08T12:58:51.839Z,10.65
2022-12-08T13:01:52.882Z,16.73
2022-12-08T13:04:21.430Z,12.75
2022-12-08T13:06:52.822Z,8.57
2022-12-08T13:09:30.014Z,14.27
2022-12-08T13:12:00.969Z,15.38
2022-12-08T13:14:35.593Z,10.55
2022-12-08T13:17:08.737Z,9.10
2022-12-08T13:19:38.428Z,12.73
2022-12-08T13:22:39.663Z,12.30
2022-12-08T13:25:49.034Z,14.13
2022-12-08T13:28:35.157Z,12.50
2022-12-08T13:31:05.455Z,14.40
2022-12-08T13:33:35.313Z,11.40
2022-12-08T13:36:18.740Z,16.58
2022-12-08T13:38:48.253Z,16.65
2022-12-08T13:41:19.602Z,5.85
2022-12-08T13:44:31.079Z,13.00
2022-12-08T13:47:16.735Z,8.48
2022-12-08T13:56:44.012Z,11.88
2022-12-08T13:58:21.204Z,15.90
2022-12-08T14:01:03.582Z,12.05
2022-12-08T14:03:36.125Z,17.80
2022-12-08T14:06:15.471Z,15.23
2022-12-08T14:09:05.305Z,14.98
2022-12-08T14:11:37.430Z,15.55
2022-12-08T14:14:08.715Z,16.45
2022-12-08T14:16:42.097Z,19.65
2022-12-08T14:19:21.387Z,12.77
2022-12-08T14:21:56.817Z,17.40
2022-12-08T14:24:25.610Z,16.38
2022-12-08T14:26:55.791Z,17.05
2022-12-08T14:29:40.429Z,16.50
2022-12-08T14:32:24.570Z,19.10
2022-12-08T14:34:59.109Z,23.10
2022-12-08T14:37:29.493Z,15.23
2022-12-08T14:40:03.322Z,17.17
2022-12-08T14:42:32.155Z,16.05
2022-12-08T14:45:07.626Z,15.80
2022-12-08T14:47:36.009Z,10.10
2022-12-08T14:50:42.379Z,17.08
2022-12-08T14:53:15.958Z,17.65
2022-12-08T14:55:45.049Z,14.68
2022-12-08T14:58:20.996Z,19.60
2022-12-08T15:00:52.311Z,19.58
2022-12-08T15:03:22.918Z,17.35
2022-12-08T15:05:54.347Z,17.67
2022-12-08T15:08:22.867Z,19.90
2022-12-08T15:11:16.201Z,16.05
2022-12-08T15:13:51.800Z,20.90
2022-12-08T15:16:30.198Z,17.63
2022-12-08T15:19:17.550Z,18.80
2022-12-08T15:21:48.677Z,17.15
2022-12-08T15:24:18.072Z,18.15
2022-12-08T15:26:50.502Z,21.42
2022-12-08T15:29:22.777Z,18.13
2022-12-08T15:31:58.802Z,16.48
2022-12-08T15:34:27.206Z,15.90
2022-12-08T15:36:57.093Z,16.02
2022-12-08T15:39:32.400Z,16.65
2022-12-08T15:42:01.643Z,19.27
2022-12-08T15:44:32.666Z,19.95
2022-12-08T15:47:03.500Z,20.27
2022-12-08T15:49:32.111Z,19.30
2022-12-08T15:52:11.636Z,19.40
2022-12-08T15:54:40.283Z,16.10
2022-12-08T15:57:30.039Z,17.25
2022-12-08T16:00:51.057Z,20.23
2022-12-08T16:09:13.313Z,20.42
2022-12-08T16:12:08.771Z,20.52
2022-12-08T16:17:30.944Z,19.35
2022-12-08T16:19:59.969Z,18.30
2022-12-08T16:25:20.996Z,19.55
2022-12-08T16:28:01.435Z,20.75
2022-12-08T16:30:34.515Z,22.95
2022-12-08T16:33:03.482Z,18.17
2022-12-08T16:35:33.872Z,21.80
2022-12-08T16:38:02.431Z,18.38
2022-12-08T16:40:54.164Z,20.48
2022-12-08T16:43:21.452Z,21.40
2022-12-08T16:45:49.910Z,23.13
2022-12-08T16:48:22.631Z,21.92
2022-12-08T16:50:50.970Z,21.75
2022-12-08T16:53:21.963Z,24.55
2022-12-08T16:55:52.801Z,23.20
2022-12-08T16:58:21.225Z,21.30
2022-12-08T17:00:52.991Z,24.48
2022-12-08T17:03:21.623Z,24.35
2022-12-08T17:05:50.067Z,22.15
2022-12-08T17:08:20.536Z,25.67
2022-12-08T17:11:07.308Z,24.17
2022-12-08T17:13:40.589Z,23.60
2022-12-08T17:16:10.777Z,21.88
2022-12-08T17:18:39.211Z,23.98
2022-12-08T17:21:12.206Z,27.00
2022-12-08T17:23:41.229Z,27.13
2022-12-08T17:26:09.943Z,22.48
2022-12-08T17:28:59.324Z,16.98
2022-12-08T17:31:30.313Z,20.90
2022-12-08T17:34:00.198Z,24.77
2022-12-08T17:36:31.589Z,18.67
2022-12-08T17:39:00.793Z,23.40
2022-12-08T17:41:30.067Z,24.17
2022-12-08T17:43:59.909Z,21.90
2022-12-08T17:46:31.382Z,24.35
2022-12-08T17:48:59.850Z,19.80
2022-12-08T17:51:28.278Z,20.75
2022-12-08T17:53:56.640Z,21.02
2022-12-08T17:56:27.051Z,25.83
2022-12-08T17:58:55.499Z,22.10
2022-12-08T18:01:25.802Z,19.45
2022-12-08T18:03:54.305Z,23.08
2022-12-08T18:06:29.628Z,15.15
2022-12-08T18:09:00.655Z,19.25
2022-12-08T18:11:30.312Z,25.55
2022-12-08T18:13:59.315Z,22.65
2022-12-08T18:16:30.656Z,26.42
2022-12-08T18:18:59.051Z,23.08
2022-12-08T18:21:30.451Z,23.85
2022-12-08T18:23:58.798Z,23.08
2022-12-08T18:26:27.311Z,14.35
2022-12-08T18:28:55.684Z,28.15
2022-12-08T18:31:40.966Z,21.60
2022-12-08T18:34:09.545Z,21.13
2022-12-08T18:36:37.939Z,19.48
2022-12-08T18:39:10.743Z,22.27
2022-12-08T18:41:39.582Z,22.90
2022-12-08T18:44:07.970Z,18.58
2022-12-08T18:46:37.853Z,21.08
2022-12-08T18:49:06.317Z,18.75
2022-12-08T18:51:34.637Z,24.15
2022-12-08T18:54:03.095Z,17.25
2022-12-08T18:56:33.597Z,23.05
2022-12-08T18:59:04.279Z,28.30
2022-12-08T19:01:33.202Z,20.75
2022-12-08T19:06:53.479Z,22.65
2022-12-08T19:09:22.807Z,20.23
2022-12-08T19:11:51.199Z,19.88
2022-12-08T19:14:25.790Z,26.17
2022-12-08T19:16:56.363Z,20.95
2022-12-08T19:19:26.521Z,20.02
2022-12-08T19:21:57.490Z,22.67
2022-12-08T19:24:29.582Z,17.77
2022-12-08T19:27:00.973Z,27.52
2022-12-08T19:29:31.778Z,21.75
2022-12-08T19:32:05.245Z,21.98
2022-12-08T19:34:37.356Z,15.75
2022-12-08T19:37:06.846Z,21.15
2022-12-08T19:39:53.228Z,22.10
2022-12-08T19:42:39.669Z,20.85
2022-12-08T19:45:12.027Z,22.88
2022-12-08T19:47:41.067Z,25.17
2022-12-08T19:50:31.356Z,22.25
2022-12-08T19:53:00.145Z,20.08
2022-12-08T19:55:31.647Z,20.88
2022-12-08T19:58:01.853Z,21.63
2022-12-08T20:00:31.304Z,20.38
2022-12-08T20:03:01.124Z,19.52
2022-12-08T20:05:32.617Z,20.10
2022-12-08T20:08:04.148Z,22.65
2022-12-08T20:10:35.626Z,22.23
2022-12-08T20:13:22.396Z,22.95
2022-12-08T20:15:50.971Z,19.30
2022-12-08T20:18:20.850Z,19.92
2022-12-08T20:20:50.805Z,20.50
2022-12-08T20:23:19.443Z,23.30
2022-12-08T20:25:48.052Z,22.33
2022-12-08T20:28:16.550Z,23.15
2022-12-08T20:30:47.225Z,22.25
2022-12-08T20:33:16.360Z,23.30
2022-12-08T20:35:45.326Z,21.52
2022-12-08T20:38:15.140Z,24.05
2022-12-08T20:40:45.850Z,21.55
2022-12-08T20:43:15.464Z,20.73
2022-12-08T20:45:43.855Z,22.67
2022-12-08T20:48:12.453Z,26.02
2022-12-08T20:50:40.982Z,16.38
2022-12-08T20:53:11.839Z,22.92
2022-12-08T20:55:44.324Z,18.70
2022-12-08T20:58:13.202Z,23.65
2022-12-08T21:00:44.113Z,23.35
2022-12-08T21:03:13.671Z,25.02
2022-12-08T21:05:42.561Z,23.17
2022-12-08T21:08:11.259Z,20.80
2022-12-08T21:10:43.796Z,25.65
2022-12-08T21:13:13.989Z,22.50
2022-12-08T21:15:48.642Z,29.05
2022-12-08T21:18:17.909Z,23.92
2022-12-08T21:20:47.603Z,19.52
2022-12-08T21:23:16.864Z,18.38
2022-12-08T21:25:47.045Z,25.40
2022-12-08T21:28:16.929Z,29.55
2022-12-08T21:30:47.795Z,25.95
2022-12-08T21:33:17.896Z,23.63
2022-12-08T21:35:46.555Z,22.85
2022-12-08T21:38:14.950Z,24.30
2022-12-08T21:40:43.358Z,27.33
2022-12-08T21:43:11.856Z,24.05
2022-12-08T21:45:41.739Z,25.42
2022-12-08T21:48:11.940Z,28.48
2022-12-08T21:50:40.629Z,27.90
2022-12-08T21:53:12.828Z,28.50
2022-12-08T21:55:41.385Z,28.88
2022-12-08T21:58:09.795Z,25.15
2022-12-08T22:00:38.180Z,20.65
2022-12-08T22:03:08.576Z,29.13
2022-12-08T22:05:38.263Z,27.65
2022-12-08T22:08:07.014Z,27.45
2022-12-08T22:10:35.690Z,27.60
2022-12-08T22:13:04.645Z,31.38
2022-12-08T22:15:33.103Z,25.73
2022-12-08T22:18:01.710Z,28.63
2022-12-08T22:20:31.572Z,25.00
2022-12-08T22:23:00.260Z,28.13
2022-12-08T22:25:28.762Z,27.40
2022-12-08T22:27:57.146Z,28.80
2022-12-08T22:30:28.264Z,27.95
2022-12-08T22:32:56.868Z,32.95
2022-12-08T22:35:25.283Z,26.13
2022-12-08T22:37:55.284Z,30.42
2022-12-08T22:40:23.689Z,30.55
2022-12-08T22:42:52.244Z,28.63
2022-12-08T22:45:20.747Z,27.30
2022-12-08T22:47:49.199Z,29.00
2022-12-08T22:50:17.692Z,28.20
2022-12-08T22:52:46.051Z,34.60
2022-12-08T22:55:15.852Z,31.85
2022-12-08T22:57:44.245Z,29.77
2022-12-08T23:00:13.428Z,30.98
2022-12-08T23:02:42.037Z,23.27
2022-12-08T23:05:11.742Z,36.25
2022-12-08T23:07:42.944Z,32.63
2022-12-08T23:10:13.295Z,28.08
2022-12-08T23:12:43.131Z,30.80
2022-12-08T23:15:11.824Z,34.80
2022-12-08T23:17:40.414Z,27.70
2022-12-08T23:20:11.804Z,33.72
2022-12-08T23:22:40.270Z,28.77
2022-12-08T23:25:09.621Z,30.95
2022-12-08T23:27:38.681Z,33.10
2022-12-08T23:30:13.169Z,28.48
2022-12-08T23:32:42.070Z,29.25
2022-12-08T23:35:11.428Z,31.25
2022-12-08T23:37:40.287Z,29.02
2022-12-08T23:40:10.282Z,30.58
2022-12-08T23:42:39.392Z,29.38
2022-12-08T23:45:10.242Z,30.15
2022-12-08T23:47:38.564Z,31.52
2022-12-08T23:50:08.678Z,25.08
2022-12-08T23:52:39.499Z,31.58
2022-12-08T23:55:09.788Z,32.45
2022-12-08T23:57:38.754Z,32.47
